Weather at Cork Airport

Public forecast

Using degrees Celsius for public forecast. Weather courtesy of forecast.io.

Current aviation weather report (METAR) for Cork Airport

Retrieved 2020/11/23 21:30 UTC (16 minutes ago):

EICK 232130Z 21019KT 7000 -RA BKN005 11/10 Q1015 TEMPO 3000 BKN003

Aviation forecast (TAF) for Cork Airport

Retrieved 2020/11/23 18:19 UTC (3 hours ago):

TAF COR EICK 232111Z 2318/2418 21015KT 5000 -DZ SCT002 BKN007 TEMPO 2318/2404 21016G27KT TEMPO 2318/2413 2500 -RADZ OVC002 PROB30 TEMPO 2320/2405 0800 OVC001 BECMG 2404/2406 19017G28KT PROB40 TEMPO 2405/2413 0700 OVC001 BECMG 2412/2414 33015G26KT 9999 BKN012 BECMG 2414/2416 32013KT NSW FEW012 BKN025 BECMG 2416/2418 28008KT